Time;durP1;ratioP1;P1;durP2;ratioP2;P2;SDS_P1;SDS_P2;PMS_P1;PMS_P2;Temp;Humidity;BMP_temperature;BMP_pressure;BME280_temperature;BME280_humidity;BME280_pressure;Samples;Min_cycle;Max_cycle;Signal;HPM_P1;HPM_P2
2022/06/10 00:00:08;;;;;;;0.80;0.60;;;14.30;99.90;;;;;;5080804;28;20248;-75
2022/06/10 00:02:34;;;;;;;0.90;0.70;;;14.30;99.90;;;;;;5080913;28;20237;-73
2022/06/10 00:05:00;;;;;;;1.27;0.93;;;14.30;99.90;;;;;;5080730;28;20401;-75
2022/06/10 00:07:27;;;;;;;1.50;1.00;;;14.30;99.90;;;;;;5086792;28;20214;-76
2022/06/10 00:09:53;;;;;;;1.70;1.60;;;14.30;99.90;;;;;;5079718;28;20174;-74
2022/06/10 00:12:19;;;;;;;1.07;0.97;;;14.30;99.90;;;;;;5082261;28;20442;-75
2022/06/10 00:14:44;;;;;;;0.80;0.70;;;14.30;99.90;;;;;;5085635;28;20778;-74
2022/06/10 00:17:10;;;;;;;0.87;0.70;;;14.30;99.90;;;;;;5097477;28;20439;-73
2022/06/10 00:19:36;;;;;;;0.90;0.70;;;14.30;99.90;;;;;;5105895;28;20197;-75
2022/06/10 00:22:01;;;;;;;1.00;0.80;;;14.30;99.90;;;;;;5107953;28;20170;-75
2022/06/10 00:24:27;;;;;;;1.43;1.20;;;14.30;99.90;;;;;;5104799;28;20235;-73
2022/06/10 00:26:53;;;;;;;1.03;0.93;;;14.30;99.90;;;;;;5096122;28;20220;-74
2022/06/10 00:29:19;;;;;;;0.80;0.60;;;14.30;99.90;;;;;;5085396;28;20602;-74
2022/06/10 00:31:44;;;;;;;1.20;1.10;;;14.30;99.90;;;;;;5084317;28;20417;-74
2022/06/10 00:34:10;;;;;;;0.80;0.63;;;14.20;99.90;;;;;;5084996;28;20411;-73
2022/06/10 00:36:36;;;;;;;1.03;0.70;;;14.20;99.90;;;;;;5091480;28;20260;-74
2022/06/10 00:39:02;;;;;;;1.27;1.17;;;14.20;99.90;;;;;;5104937;28;20208;-75
2022/06/10 00:41:28;;;;;;;1.20;0.90;;;14.10;99.90;;;;;;5104984;28;20456;-75
2022/06/10 00:43:54;;;;;;;1.53;1.03;;;14.10;99.90;;;;;;5103335;28;20411;-75
2022/06/10 00:46:28;;;;;;;0.83;0.57;;;14.10;99.90;;;;;;5101142;28;20268;-75
2022/06/10 00:49:03;;;;;;;0.80;0.60;;;14.00;99.90;;;;;;5083941;28;20583;-75
2022/06/10 00:51:35;;;;;;;1.20;0.77;;;14.00;99.90;;;;;;5084164;28;20419;-73
2022/06/10 00:54:21;;;;;;;0.90;0.70;;;13.90;99.90;;;;;;5082092;28;20439;-75
2022/06/10 00:57:01;;;;;;;1.20;1.10;;;13.90;99.90;;;;;;5092224;28;20492;-73
2022/06/10 00:59:36;;;;;;;1.10;0.90;;;13.90;99.90;;;;;;5085999;28;20451;-73
2022/06/10 01:02:09;;;;;;;1.53;1.27;;;13.80;99.90;;;;;;5086628;28;20412;-74
2022/06/10 01:04:34;;;;;;;0.80;0.80;;;13.80;99.90;;;;;;5084937;28;20438;-75
2022/06/10 01:07:00;;;;;;;0.80;0.60;;;13.70;99.90;;;;;;5090507;28;20823;-76
2022/06/10 01:09:28;;;;;;;1.10;0.90;;;13.70;99.90;;;;;;5104753;28;20423;-73
2022/06/10 01:12:03;;;;;;;0.90;0.63;;;13.70;99.90;;;;;;5104182;28;20671;-73
2022/06/10 01:14:45;;;;;;;0.80;0.70;;;13.70;99.90;;;;;;5102348;28;20408;-75
2022/06/10 01:17:30;;;;;;;0.80;0.70;;;13.70;99.90;;;;;;5094628;28;20444;-74
2022/06/10 01:20:26;;;;;;;2.50;0.90;;;13.60;99.90;;;;;;5083438;28;20459;-73
2022/06/10 01:23:30;;;;;;;1.23;0.83;;;13.60;99.90;;;;;;5083905;28;20409;-74
2022/06/10 01:26:24;;;;;;;0.90;0.80;;;13.50;99.90;;;;;;5084967;28;20785;-75
2022/06/10 01:29:20;;;;;;;1.33;0.90;;;13.50;99.90;;;;;;5102057;28;20419;-73
2022/06/10 01:32:01;;;;;;;1.43;1.13;;;13.50;99.90;;;;;;5102784;28;20407;-75
2022/06/10 01:34:50;;;;;;;1.53;1.27;;;13.50;99.90;;;;;;5104842;28;20395;-73
2022/06/10 01:37:22;;;;;;;0.80;0.57;;;13.50;99.90;;;;;;5092739;28;20436;-75
2022/06/10 01:39:59;;;;;;;0.90;0.77;;;13.40;99.90;;;;;;5083862;28;20460;-74
2022/06/10 01:42:45;;;;;;;0.80;0.50;;;13.40;99.90;;;;;;5083959;28;20415;-74
2022/06/10 01:45:25;;;;;;;0.83;0.50;;;13.40;99.90;;;;;;5084162;28;20400;-75
2022/06/10 01:47:54;;;;;;;0.80;0.70;;;13.40;99.90;;;;;;5095229;28;20407;-76
2022/06/10 01:50:51;;;;;;;0.80;0.60;;;13.40;99.90;;;;;;5104458;28;20414;-75
2022/06/10 01:53:22;;;;;;;1.00;0.77;;;13.40;99.90;;;;;;5106040;28;20403;-74
2022/06/10 01:55:58;;;;;;;0.97;0.87;;;13.30;99.90;;;;;;5105476;28;20440;-75
2022/06/10 01:58:44;;;;;;;0.90;0.70;;;13.40;99.90;;;;;;5087362;28;20423;-75
2022/06/10 02:01:20;;;;;;;1.47;1.37;;;13.30;99.90;;;;;;5083848;28;20898;-75
2022/06/10 02:04:02;;;;;;;1.00;0.70;;;13.30;99.90;;;;;;5082471;28;20922;-75
2022/06/10 02:06:30;;;;;;;1.07;0.97;;;13.30;99.90;;;;;;5084712;28;20420;-74
2022/06/10 02:09:00;;;;;;;1.17;1.07;;;13.30;99.90;;;;;;5104994;28;20479;-75
2022/06/10 02:11:26;;;;;;;1.87;1.23;;;13.30;99.90;;;;;;5103105;28;20826;-73
2022/06/10 02:14:00;;;;;;;0.80;0.60;;;13.30;99.90;;;;;;5103634;28;20407;-75
2022/06/10 02:16:29;;;;;;;1.03;0.93;;;13.30;99.90;;;;;;5101400;28;20419;-76
2022/06/10 02:19:07;;;;;;;0.83;0.63;;;13.20;99.90;;;;;;5081928;28;20895;-75
2022/06/10 02:21:42;;;;;;;0.90;0.80;;;13.20;99.90;;;;;;5081465;28;20412;-75
2022/06/10 02:24:25;;;;;;;2.07;0.90;;;13.20;99.90;;;;;;5082168;28;20419;-72
2022/06/10 02:26:54;;;;;;;1.03;0.93;;;13.10;99.90;;;;;;5084507;28;20461;-75
2022/06/10 02:29:28;;;;;;;0.70;0.60;;;13.10;99.90;;;;;;5104293;28;20506;-72
2022/06/10 02:31:59;;;;;;;3.57;1.43;;;13.10;99.90;;;;;;5102844;28;20396;-75
2022/06/10 02:34:27;;;;;;;1.83;0.70;;;13.00;99.90;;;;;;5102758;28;20429;-75
2022/06/10 02:37:09;;;;;;;0.83;0.70;;;13.00;99.90;;;;;;5097419;28;20451;-74
2022/06/10 02:39:37;;;;;;;0.80;0.73;;;13.00;99.90;;;;;;5082516;28;20444;-74
2022/06/10 02:42:10;;;;;;;0.80;0.70;;;13.00;99.90;;;;;;5080636;28;20404;-74
2022/06/10 02:44:44;;;;;;;0.80;0.70;;;12.90;99.90;;;;;;5081614;28;20416;-74
2022/06/10 02:47:40;;;;;;;1.00;0.80;;;12.90;99.90;;;;;;5088309;28;20427;-75
2022/06/10 02:50:10;;;;;;;0.80;0.70;;;12.90;99.90;;;;;;5090211;28;20506;-75
2022/06/10 02:52:36;;;;;;;0.90;0.70;;;12.80;99.90;;;;;;5100918;28;20425;-75
2022/06/10 02:55:05;;;;;;;2.50;0.83;;;12.70;99.90;;;;;;5102156;28;20485;-75
2022/06/10 03:03:11;;;;;;;0.90;0.70;;;12.60;99.90;;;;;;5082311;28;20388;-75
2022/06/10 03:06:07;;;;;;;1.90;1.07;;;12.60;99.90;;;;;;5078741;28;20428;-73
2022/06/10 03:08:45;;;;;;;2.90;2.70;;;12.50;99.90;;;;;;5095327;28;20411;-72
2022/06/10 03:11:34;;;;;;;1.03;0.93;;;12.40;99.90;;;;;;5101724;28;20907;-75
2022/06/10 03:14:17;;;;;;;0.90;0.60;;;12.40;99.90;;;;;;5101589;28;20404;-74
2022/06/10 03:16:58;;;;;;;0.80;0.80;;;12.30;99.90;;;;;;5099010;28;20423;-74
2022/06/10 03:19:46;;;;;;;1.20;1.00;;;12.30;99.90;;;;;;5081852;28;20448;-74
2022/06/10 03:22:38;;;;;;;2.00;1.90;;;12.20;99.90;;;;;;5081933;28;20439;-74
2022/06/10 03:25:24;;;;;;;0.80;0.60;;;12.20;99.90;;;;;;5057514;28;20758;-73
2022/06/10 03:28:22;;;;;;;0.80;0.60;;;12.20;99.90;;;;;;5082632;28;20850;-73
2022/06/10 03:31:16;;;;;;;0.80;0.67;;;12.10;99.90;;;;;;5082772;28;20404;-74
2022/06/10 03:33:50;;;;;;;1.10;1.00;;;12.10;99.90;;;;;;5079898;28;20428;-74
2022/06/10 03:36:20;;;;;;;1.00;0.70;;;12.10;99.90;;;;;;5080136;28;20436;-74
2022/06/10 03:38:48;;;;;;;0.80;0.60;;;12.10;99.90;;;;;;5098350;28;20921;-74
2022/06/10 03:41:19;;;;;;;0.80;0.50;;;12.10;99.90;;;;;;5101215;28;20437;-73
2022/06/10 03:43:45;;;;;;;0.80;0.60;;;12.10;99.90;;;;;;5102453;28;20421;-77
2022/06/10 03:46:12;;;;;;;1.10;0.60;;;12.10;99.90;;;;;;5101157;28;20436;-75
2022/06/10 03:48:41;;;;;;;1.00;0.70;;;12.10;99.90;;;;;;5083695;28;20492;-75
2022/06/10 03:51:10;;;;;;;1.00;0.77;;;12.10;99.90;;;;;;5081892;28;20423;-74
2022/06/10 03:53:35;;;;;;;1.00;0.80;;;12.10;99.90;;;;;;5080879;28;20408;-74
2022/06/10 03:56:01;;;;;;;0.80;0.80;;;12.10;99.90;;;;;;5082441;28;20429;-74
2022/06/10 03:58:26;;;;;;;1.20;0.70;;;12.20;99.90;;;;;;5095129;28;20184;-75
2022/06/10 04:00:52;;;;;;;1.03;0.80;;;12.20;99.90;;;;;;5101507;28;20200;-75
2022/06/10 04:03:17;;;;;;;0.90;0.70;;;12.20;99.90;;;;;;5102124;28;20166;-75
2022/06/10 04:05:43;;;;;;;0.97;0.70;;;12.30;99.90;;;;;;5102223;28;20182;-74
2022/06/10 04:08:09;;;;;;;0.90;0.70;;;12.30;99.90;;;;;;5089420;28;20175;-74
2022/06/10 04:10:35;;;;;;;1.37;0.87;;;12.30;99.90;;;;;;5082781;28;20245;-73
2022/06/10 04:13:00;;;;;;;0.90;0.80;;;12.40;99.90;;;;;;5080669;28;20448;-74
2022/06/10 04:15:27;;;;;;;0.80;0.60;;;12.50;99.90;;;;;;5082263;28;20178;-74
2022/06/10 04:17:55;;;;;;;0.90;0.70;;;12.50;99.90;;;;;;5090322;28;20173;-75
2022/06/10 04:20:29;;;;;;;1.00;0.90;;;12.60;99.90;;;;;;5102315;28;20478;-75
2022/06/10 04:22:55;;;;;;;2.23;2.10;;;12.70;99.90;;;;;;5102301;28;20391;-74
2022/06/10 04:25:21;;;;;;;0.90;0.77;;;12.80;99.90;;;;;;5099953;28;20923;-75
2022/06/10 04:27:46;;;;;;;1.10;1.00;;;12.80;99.90;;;;;;5092986;28;20420;-75
2022/06/10 04:30:36;;;;;;;2.50;1.00;;;13.00;99.90;;;;;;5081927;28;20408;-75
2022/06/10 04:33:03;;;;;;;1.23;1.13;;;13.10;99.90;;;;;;5082306;28;20209;-75
2022/06/10 04:35:29;;;;;;;1.17;0.93;;;13.20;99.90;;;;;;5080242;28;20439;-75
2022/06/10 04:37:56;;;;;;;0.90;0.80;;;13.30;99.90;;;;;;5090903;28;20443;-75
2022/06/10 04:40:25;;;;;;;1.10;0.70;;;13.40;99.90;;;;;;5101263;28;20478;-74
2022/06/10 04:42:51;;;;;;;1.00;0.60;;;13.50;99.90;;;;;;5102844;28;20399;-75
2022/06/10 04:45:20;;;;;;;1.00;0.90;;;13.60;99.90;;;;;;5100076;28;20430;-77
2022/06/10 04:47:46;;;;;;;0.90;0.80;;;13.60;99.90;;;;;;5094815;28;20435;-75
2022/06/10 04:50:14;;;;;;;0.80;0.70;;;13.70;99.90;;;;;;5081423;28;20416;-74
2022/06/10 04:52:40;;;;;;;0.80;0.60;;;13.80;99.90;;;;;;5080610;28;20912;-75
2022/06/10 04:55:07;;;;;;;1.10;1.00;;;13.90;99.90;;;;;;5082574;28;20424;-78
2022/06/10 04:57:33;;;;;;;1.43;1.07;;;14.00;99.90;;;;;;5087944;28;20584;-74
2022/06/10 04:59:59;;;;;;;0.77;0.60;;;14.10;99.90;;;;;;5103339;28;20584;-74
2022/06/10 05:02:24;;;;;;;1.00;0.90;;;14.30;99.90;;;;;;5103870;28;20456;-73
2022/06/10 05:04:50;;;;;;;0.83;0.80;;;14.40;99.90;;;;;;5104703;28;20181;-76
2022/06/10 05:07:16;;;;;;;1.37;1.10;;;14.60;99.90;;;;;;5101565;28;20257;-75
2022/06/10 05:09:41;;;;;;;0.80;0.60;;;14.80;99.90;;;;;;5085458;28;20660;-76
2022/06/10 05:12:07;;;;;;;1.03;0.97;;;15.00;99.90;;;;;;5085651;28;20170;-75
2022/06/10 05:14:34;;;;;;;0.80;0.80;;;15.20;99.90;;;;;;5084071;28;20241;-73
2022/06/10 05:17:00;;;;;;;0.80;0.70;;;15.40;99.90;;;;;;5083218;28;20468;-75
2022/06/10 05:19:26;;;;;;;1.00;0.90;;;15.60;99.90;;;;;;5102390;28;20447;-75
2022/06/10 05:21:51;;;;;;;1.67;1.10;;;15.90;99.90;;;;;;5104605;28;20434;-74
2022/06/10 05:24:17;;;;;;;1.00;0.90;;;16.30;99.90;;;;;;5101906;28;20170;-73
2022/06/10 05:26:42;;;;;;;1.00;0.90;;;16.50;99.90;;;;;;5101721;28;20190;-75
2022/06/10 05:29:08;;;;;;;5.20;1.03;;;16.70;99.90;;;;;;5086071;28;20178;-74
2022/06/10 05:31:34;;;;;;;1.50;1.37;;;17.00;99.90;;;;;;5085430;28;20181;-74
2022/06/10 05:36:44;;;;;;;0.90;0.80;;;17.30;99.90;;;;;;5083860;28;20268;-74
2022/06/10 05:39:10;;;;;;;1.00;0.70;;;17.40;99.90;;;;;;5099341;28;20465;-75
2022/06/10 05:44:19;;;;;;;1.23;1.13;;;17.50;99.90;;;;;;5101209;28;20185;-76
2022/06/10 05:46:45;;;;;;;1.40;0.93;;;17.60;99.90;;;;;;5101398;28;20427;-75
2022/06/10 05:49:11;;;;;;;1.03;0.87;;;17.60;99.90;;;;;;5085790;28;20189;-75
2022/06/10 05:51:37;;;;;;;1.00;0.80;;;17.70;99.90;;;;;;5082416;28;20204;-75
2022/06/10 05:54:04;;;;;;;2.17;1.20;;;17.70;99.90;;;;;;5082025;28;20432;-75
2022/06/10 05:56:30;;;;;;;0.80;0.70;;;17.70;99.90;;;;;;5083628;28;20249;-75
2022/06/10 05:58:56;;;;;;;1.13;0.97;;;17.70;99.90;;;;;;5097546;28;20434;-75
2022/06/10 06:01:22;;;;;;;0.80;0.80;;;17.80;99.90;;;;;;5102293;28;20388;-74
2022/06/10 06:03:48;;;;;;;1.57;0.67;;;17.80;99.90;;;;;;5102562;28;20395;-75
2022/06/10 06:06:14;;;;;;;0.80;0.60;;;17.80;99.90;;;;;;5102654;28;20419;-75
2022/06/10 06:08:39;;;;;;;0.90;0.70;;;17.80;99.90;;;;;;5088828;28;20178;-75
2022/06/10 06:11:05;;;;;;;0.87;0.73;;;17.90;99.90;;;;;;5081132;28;20415;-75
2022/06/10 06:13:31;;;;;;;1.40;1.00;;;17.90;99.90;;;;;;5081811;28;20181;-75
2022/06/10 06:15:57;;;;;;;3.13;1.07;;;17.90;99.90;;;;;;5080791;28;20257;-73
2022/06/10 06:18:22;;;;;;;1.13;1.00;;;17.90;99.90;;;;;;5091741;28;20185;-73
2022/06/10 06:20:48;;;;;;;0.90;0.70;;;18.00;99.90;;;;;;5099533;28;20486;-75
2022/06/10 06:23:13;;;;;;;1.00;0.70;;;18.00;99.90;;;;;;5101079;28;20197;-76
2022/06/10 06:25:39;;;;;;;1.00;0.77;;;18.00;99.90;;;;;;5099394;28;20557;-74
2022/06/10 06:28:05;;;;;;;0.90;0.60;;;18.10;99.90;;;;;;5093500;28;20174;-74
2022/06/10 06:30:33;;;;;;;1.00;0.70;;;18.20;99.90;;;;;;5080939;28;20194;-75
2022/06/10 06:33:04;;;;;;;0.93;0.83;;;18.20;99.90;;;;;;5080337;28;20181;-75
2022/06/10 06:35:35;;;;;;;0.80;0.60;;;18.20;99.90;;;;;;5079869;28;20427;-75
2022/06/10 06:38:03;;;;;;;1.93;1.83;;;18.40;99.90;;;;;;5085756;28;20423;-75
2022/06/10 06:40:30;;;;;;;0.80;0.70;;;18.40;99.90;;;;;;5100578;28;20458;-75
2022/06/10 06:42:55;;;;;;;1.83;1.20;;;18.50;99.90;;;;;;5101091;28;20400;-74
2022/06/10 06:45:23;;;;;;;0.80;0.70;;;18.60;99.90;;;;;;5098930;28;20942;-75
2022/06/10 06:47:51;;;;;;;1.23;0.90;;;18.70;99.90;;;;;;5093196;28;20200;-75
2022/06/10 06:50:19;;;;;;;2.03;0.70;;;18.90;99.90;;;;;;5078309;28;20423;-74
2022/06/10 06:52:45;;;;;;;0.90;0.70;;;19.00;99.90;;;;;;5079242;28;20416;-75
2022/06/10 06:55:11;;;;;;;1.70;1.07;;;19.10;99.90;;;;;;5077586;28;20472;-75
2022/06/10 06:57:36;;;;;;;1.10;0.90;;;19.30;99.90;;;;;;5097256;28;20288;-75
2022/06/10 07:00:06;;;;;;;0.80;0.60;;;19.40;99.90;;;;;;5098742;28;20487;-75
2022/06/10 07:02:32;;;;;;;1.00;0.70;;;19.50;99.90;;;;;;5100679;28;20197;-75
2022/06/10 07:04:58;;;;;;;1.23;0.97;;;19.60;99.90;;;;;;5099162;28;20411;-75
2022/06/10 07:07:24;;;;;;;1.53;1.17;;;19.70;99.90;;;;;;5080535;28;20807;-74
2022/06/10 07:09:50;;;;;;;0.90;0.63;;;19.80;99.90;;;;;;5078052;28;20897;-77
2022/06/10 07:12:16;;;;;;;4.97;1.07;;;19.80;99.90;;;;;;5080363;28;20170;-75
2022/06/10 07:14:41;;;;;;;1.00;0.90;;;19.80;99.90;;;;;;5079518;28;20185;-75
2022/06/10 07:17:07;;;;;;;0.90;0.70;;;20.00;99.90;;;;;;5091148;28;20435;-75
2022/06/10 07:19:33;;;;;;;4.27;1.03;;;20.00;99.90;;;;;;5099496;28;20232;-74
2022/06/10 07:21:58;;;;;;;0.90;0.63;;;20.20;99.90;;;;;;5098762;28;20263;-73
2022/06/10 07:24:24;;;;;;;0.80;0.60;;;20.30;99.90;;;;;;5098091;28;20165;-75
2022/06/10 07:26:50;;;;;;;0.90;0.80;;;20.50;99.90;;;;;;5086577;28;20298;-75
2022/06/10 07:29:16;;;;;;;1.03;0.93;;;20.80;99.90;;;;;;5080197;28;20412;-76
2022/06/10 07:31:42;;;;;;;4.10;1.30;;;21.00;99.90;;;;;;5079454;28;20242;-76
2022/06/10 07:34:09;;;;;;;0.97;0.77;;;21.30;99.90;;;;;;5080814;28;20412;-75
2022/06/10 07:36:35;;;;;;;1.00;0.90;;;21.50;99.90;;;;;;5087208;28;20204;-75
2022/06/10 07:39:01;;;;;;;1.00;0.90;;;21.70;99.90;;;;;;5099284;28;20465;-76
2022/06/10 07:44:11;;;;;;;1.30;1.00;;;22.10;99.90;;;;;;5098947;28;20418;-75
2022/06/10 07:46:37;;;;;;;0.80;0.63;;;22.40;99.90;;;;;;5089094;28;20432;-75
2022/06/10 07:49:03;;;;;;;0.90;0.70;;;22.60;99.90;;;;;;5079633;28;20177;-75
2022/06/10 07:51:28;;;;;;;1.13;1.00;;;23.00;99.90;;;;;;5079175;28;20173;-75
2022/06/10 07:53:54;;;;;;;0.90;0.70;;;23.30;99.90;;;;;;5078921;28;20196;-74
2022/06/10 07:56:22;;;;;;;1.17;0.73;;;23.90;99.90;;;;;;5086144;28;20185;-73
2022/06/10 07:58:50;;;;;;;1.20;0.70;;;24.50;99.90;;;;;;5099135;28;20667;-75
2022/06/10 08:01:16;;;;;;;0.93;0.77;;;24.90;99.90;;;;;;5099178;28;20489;-73
2022/06/10 08:03:42;;;;;;;1.03;0.93;;;25.20;99.90;;;;;;5099781;28;20511;-74
2022/06/10 08:06:07;;;;;;;0.97;0.70;;;25.70;99.90;;;;;;5099364;28;21009;-73
2022/06/10 08:08:33;;;;;;;0.87;0.70;;;26.30;99.90;;;;;;5100580;28;20173;-75
2022/06/10 08:10:59;;;;;;;1.00;0.83;;;26.80;99.90;;;;;;5099925;28;20173;-75
2022/06/10 08:13:25;;;;;;;1.00;0.90;;;27.40;99.90;;;;;;5090895;28;20428;-75
2022/06/10 08:15:51;;;;;;;0.90;0.80;;;28.20;99.90;;;;;;5078070;28;20205;-75
2022/06/10 08:18:18;;;;;;;0.90;0.80;;;29.80;99.90;;;;;;5080205;28;20416;-75
2022/06/10 08:23:32;;;;;;;1.10;0.90;;;32.10;81.90;;;;;;5090869;28;20433;-75
2022/06/10 08:26:00;;;;;;;1.10;0.97;;;33.20;72.30;;;;;;5103469;28;20549;-76
2022/06/10 08:28:26;;;;;;;0.90;0.77;;;33.30;62.10;;;;;;5099300;28;20866;-76
2022/06/10 08:30:52;;;;;;;1.20;1.10;;;34.20;59.30;;;;;;5106011;28;20411;-75
2022/06/10 08:33:18;;;;;;;1.00;0.80;;;36.20;56.90;;;;;;5094618;28;20430;-76
2022/06/10 08:35:44;;;;;;;1.03;0.93;;;38.10;52.70;;;;;;5084902;28;20428;-76
2022/06/10 08:38:13;;;;;;;1.00;0.80;;;39.10;48.30;;;;;;5085454;28;20158;-76
2022/06/10 08:40:52;;;;;;;1.83;1.13;;;40.10;46.30;;;;;;5083687;28;20975;-75
2022/06/10 08:43:43;;;;;;;1.13;1.03;;;42.10;44.00;;;;;;5095795;28;20418;-76
2022/06/10 08:46:29;;;;;;;0.93;0.83;;;43.20;40.70;;;;;;5104547;28;20423;-76
2022/06/10 08:49:35;;;;;;;1.30;1.20;;;43.80;38.50;;;;;;5085039;28;20518;-74
2022/06/10 08:52:19;;;;;;;1.20;1.10;;;44.00;35.30;;;;;;5083449;28;20423;-76
2022/06/10 08:55:04;;;;;;;1.10;1.00;;;42.90;33.60;;;;;;5083402;28;20447;-76
2022/06/10 08:57:43;;;;;;;1.20;1.10;;;41.40;33.20;;;;;;5086328;28;20442;-74
2022/06/10 09:00:15;;;;;;;1.00;0.90;;;39.90;34.30;;;;;;5086047;28;20447;-76
2022/06/10 09:03:00;;;;;;;1.00;0.90;;;38.80;35.20;;;;;;5084794;28;20452;-76
2022/06/10 09:05:45;;;;;;;2.30;1.07;;;37.50;36.10;;;;;;5050618;28;20411;-75
2022/06/10 09:08:40;;;;;;;1.67;0.93;;;36.60;37.40;;;;;;5101675;28;20396;-75
2022/06/10 09:11:11;;;;;;;1.00;0.90;;;35.60;38.60;;;;;;5100999;28;20879;-74
2022/06/10 09:13:57;;;;;;;0.90;0.70;;;34.90;39.40;;;;;;5091716;28;20417;-75
2022/06/10 09:16:35;;;;;;;1.57;1.10;;;34.40;40.50;;;;;;5080847;28;20446;-76
2022/06/10 09:19:06;;;;;;;1.27;1.17;;;34.00;41.50;;;;;;5083732;28;20428;-75
2022/06/10 09:21:43;;;;;;;1.73;1.63;;;33.70;41.50;;;;;;5082352;28;20968;-75
2022/06/10 09:24:33;;;;;;;1.67;0.80;;;33.30;42.00;;;;;;5096893;28;20415;-76
2022/06/10 09:27:20;;;;;;;0.90;0.70;;;33.00;42.30;;;;;;5087114;28;20432;-75
2022/06/10 09:29:46;;;;;;;0.90;0.70;;;32.60;42.80;;;;;;5086805;28;20404;-73
2022/06/10 09:32:38;;;;;;;0.90;0.70;;;32.30;44.20;;;;;;5101364;28;20442;-74
2022/06/10 09:35:25;;;;;;;1.00;0.70;;;32.00;44.60;;;;;;5080902;28;20424;-73
2022/06/10 09:37:54;;;;;;;0.90;0.70;;;31.80;44.50;;;;;;5081921;28;20407;-75
2022/06/10 09:40:37;;;;;;;1.33;1.23;;;31.70;44.90;;;;;;5084082;28;20448;-74
2022/06/10 09:43:43;;;;;;;0.90;0.60;;;31.70;45.20;;;;;;5085600;28;20430;-73
2022/06/10 09:46:44;;;;;;;1.00;0.73;;;31.60;45.60;;;;;;5102590;28;20423;-76
2022/06/10 09:49:27;;;;;;;0.90;0.70;;;31.40;45.70;;;;;;5103003;28;20391;-75
2022/06/10 09:52:15;;;;;;;1.23;0.70;;;31.10;45.60;;;;;;5101466;28;20410;-74
2022/06/10 09:54:43;;;;;;;1.00;0.90;;;30.70;45.70;;;;;;5082031;28;20443;-75
2022/06/10 09:57:14;;;;;;;1.70;0.97;;;30.20;45.90;;;;;;5082019;28;20428;-72
2022/06/10 09:59:52;;;;;;;1.10;0.80;;;29.70;46.50;;;;;;5080806;28;20474;-74
2022/06/10 10:02:36;;;;;;;0.90;0.60;;;29.30;47.10;;;;;;5081439;28;20887;-74
2022/06/10 10:05:17;;;;;;;1.27;0.70;;;28.90;48.00;;;;;;5079339;28;20392;-75
2022/06/10 10:08:00;;;;;;;1.20;0.80;;;28.60;49.10;;;;;;5081906;28;20468;-74
2022/06/10 10:10:33;;;;;;;1.97;1.00;;;28.50;50.10;;;;;;5081344;28;20420;-74
2022/06/10 10:13:29;;;;;;;1.50;1.23;;;28.50;51.00;;;;;;5081548;28;20443;-74
2022/06/10 10:16:16;;;;;;;0.90;0.70;;;28.60;51.70;;;;;;5101172;28;20432;-75
2022/06/10 10:18:49;;;;;;;0.90;0.67;;;28.80;52.00;;;;;;5101320;28;20409;-75
2022/06/10 10:21:32;;;;;;;1.00;0.90;;;29.00;51.90;;;;;;5099865;28;20504;-75
2022/06/10 10:23:59;;;;;;;0.90;0.70;;;29.20;51.70;;;;;;5088531;28;20442;-73
2022/06/10 10:26:29;;;;;;;0.90;0.70;;;29.50;51.60;;;;;;5080020;28;20420;-75
2022/06/10 10:29:24;;;;;;;0.80;0.60;;;29.80;50.90;;;;;;5081194;28;20483;-75
2022/06/10 10:32:11;;;;;;;1.00;0.70;;;30.20;50.90;;;;;;5078057;28;20437;-74
2022/06/10 10:34:38;;;;;;;0.90;0.60;;;30.50;50.40;;;;;;5097137;28;20427;-75
2022/06/10 10:37:18;;;;;;;1.60;0.83;;;30.80;50.90;;;;;;5098520;28;20760;-73
2022/06/10 10:39:50;;;;;;;0.90;0.80;;;31.00;50.20;;;;;;5098226;28;21094;-72
2022/06/10 10:42:23;;;;;;;1.20;1.00;;;31.20;49.60;;;;;;5099885;28;20437;-73
2022/06/10 10:44:59;;;;;;;1.17;1.07;;;31.60;49.30;;;;;;5080464;28;20429;-74
2022/06/10 10:47:26;;;;;;;0.90;0.80;;;32.20;49.20;;;;;;5079973;28;20416;-75
2022/06/10 10:50:16;;;;;;;0.90;0.60;;;32.50;48.40;;;;;;5078807;28;20408;-75
2022/06/10 10:52:44;;;;;;;0.90;0.60;;;32.90;48.10;;;;;;5084704;28;20420;-75
2022/06/10 10:55:12;;;;;;;0.90;0.70;;;33.30;47.60;;;;;;5098085;28;20449;-75
2022/06/10 10:57:53;;;;;;;1.30;1.00;;;33.50;46.60;;;;;;5094502;28;20880;-74
2022/06/10 11:00:33;;;;;;;0.90;0.70;;;33.70;46.40;;;;;;5096878;28;20451;-75
2022/06/10 11:03:01;;;;;;;1.00;0.80;;;33.70;45.60;;;;;;5090159;28;20511;-75
2022/06/10 11:05:37;;;;;;;0.90;0.60;;;33.60;45.70;;;;;;5077158;28;20456;-76
2022/06/10 11:08:13;;;;;;;0.90;0.80;;;33.50;45.60;;;;;;5076793;28;20408;-76
2022/06/10 11:11:12;;;;;;;1.00;0.73;;;33.30;45.80;;;;;;5078461;28;20419;-75
2022/06/10 11:13:41;;;;;;;0.90;0.60;;;33.30;46.00;;;;;;5085450;28;20411;-75
2022/06/10 11:16:28;;;;;;;2.23;1.73;;;33.30;45.80;;;;;;5096592;28;20426;-75
2022/06/10 11:19:11;;;;;;;0.90;0.70;;;33.60;45.90;;;;;;5098000;28;20411;-75
2022/06/10 11:21:51;;;;;;;1.07;0.77;;;34.40;45.70;;;;;;5084978;28;20444;-75
2022/06/10 11:24:21;;;;;;;1.67;0.80;;;34.90;44.70;;;;;;5077581;28;20389;-73
2022/06/10 11:26:53;;;;;;;0.90;0.70;;;35.10;44.10;;;;;;5075252;28;20455;-76
2022/06/10 11:29:19;;;;;;;0.90;0.70;;;35.20;42.80;;;;;;5075575;28;20469;-75
2022/06/10 11:31:49;;;;;;;4.90;0.90;;;35.50;42.40;;;;;;5089731;28;20432;-75
2022/06/10 11:34:34;;;;;;;0.90;0.80;;;35.80;42.30;;;;;;5094948;28;20914;-75
2022/06/10 11:37:00;;;;;;;0.90;0.70;;;36.30;41.90;;;;;;5097249;28;20499;-75
2022/06/10 11:39:33;;;;;;;0.90;0.70;;;36.70;41.40;;;;;;5097042;28;20762;-76
2022/06/10 11:42:18;;;;;;;1.00;0.90;;;37.10;41.20;;;;;;5080029;28;20448;-75
2022/06/10 11:45:01;;;;;;;0.90;0.70;;;37.50;40.70;;;;;;5076342;28;20442;-74
2022/06/10 11:47:36;;;;;;;1.10;0.80;;;37.60;39.10;;;;;;5078032;28;20428;-75
2022/06/10 11:50:11;;;;;;;1.10;0.90;;;37.50;39.00;;;;;;5078626;28;20472;-75
2022/06/10 11:52:46;;;;;;;1.20;0.90;;;37.50;39.20;;;;;;5095884;28;20443;-75
2022/06/10 11:55:20;;;;;;;1.13;1.03;;;37.60;39.70;;;;;;5093779;28;20797;-75
2022/06/10 12:00:55;;;;;;;1.10;0.80;;;38.00;39.10;;;;;;5091643;28;20452;-75
2022/06/10 12:03:33;;;;;;;1.20;0.90;;;38.20;39.10;;;;;;5074707;28;20785;-75
2022/06/10 12:06:13;;;;;;;0.90;0.80;;;38.40;38.80;;;;;;5076297;28;20519;-73
2022/06/10 12:08:49;;;;;;;1.50;1.10;;;38.70;38.10;;;;;;5078862;28;20466;-75
2022/06/10 12:11:31;;;;;;;1.10;0.80;;;39.00;37.80;;;;;;5094577;28;20418;-74
2022/06/10 12:13:59;;;;;;;0.90;0.80;;;39.20;37.30;;;;;;5101557;28;20403;-76
2022/06/10 12:16:30;;;;;;;1.10;1.00;;;39.30;37.30;;;;;;5100207;28;20432;-74
2022/06/10 12:18:57;;;;;;;1.30;1.20;;;39.50;37.60;;;;;;5101346;28;20415;-75
2022/06/10 12:21:25;;;;;;;1.00;0.90;;;39.50;37.10;;;;;;5087676;28;20424;-76
2022/06/10 12:23:51;;;;;;;1.10;1.00;;;39.60;36.90;;;;;;5081789;28;20393;-75
2022/06/10 12:26:25;;;;;;;1.37;1.27;;;39.70;37.00;;;;;;5079933;28;20441;-76
2022/06/10 12:29:04;;;;;;;1.20;1.10;;;39.90;37.00;;;;;;5081104;28;20392;-75
2022/06/10 12:31:52;;;;;;;0.90;0.70;;;40.50;36.70;;;;;;5095515;28;20407;-74
2022/06/10 12:34:40;;;;;;;1.20;1.10;;;41.00;35.80;;;;;;5102824;28;20460;-76
2022/06/10 12:37:10;;;;;;;1.27;1.17;;;41.00;35.40;;;;;;5101507;28;20430;-74
2022/06/10 12:39:58;;;;;;;1.53;1.30;;;40.90;35.10;;;;;;5100976;28;20820;-76
2022/06/10 12:42:40;;;;;;;1.00;0.90;;;40.30;34.90;;;;;;5083591;28;20407;-75
2022/06/10 12:45:23;;;;;;;0.90;0.80;;;39.70;35.40;;;;;;5081052;28;20423;-75
2022/06/10 12:47:57;;;;;;;1.37;0.90;;;39.10;35.90;;;;;;5085066;28;20930;-75
2022/06/10 12:50:32;;;;;;;0.90;0.80;;;38.50;36.50;;;;;;5090401;28;20518;-74
2022/06/10 12:53:13;;;;;;;1.10;0.90;;;38.00;37.10;;;;;;5105894;28;20511;-73
2022/06/10 12:55:52;;;;;;;1.10;0.93;;;37.60;37.80;;;;;;5102421;28;20466;-74
2022/06/10 12:58:54;;;;;;;1.10;1.00;;;37.20;38.20;;;;;;5100001;28;20417;-73
2022/06/10 13:01:20;;;;;;;1.10;1.00;;;36.90;38.70;;;;;;5048345;28;20503;-73
2022/06/10 13:03:48;;;;;;;0.90;0.80;;;36.70;38.80;;;;;;5079811;28;20956;-73
2022/06/10 13:06:43;;;;;;;1.00;0.90;;;36.60;38.90;;;;;;5078555;28;20185;-73
2022/06/10 13:09:12;;;;;;;0.93;0.83;;;36.60;39.20;;;;;;5084701;28;20437;-74
2022/06/10 13:11:57;;;;;;;0.90;0.80;;;36.60;38.60;;;;;;5091026;28;20427;-75
2022/06/10 13:14:34;;;;;;;1.10;1.00;;;36.60;38.60;;;;;;5101280;28;20455;-72
2022/06/10 13:17:00;;;;;;;1.63;1.53;;;36.50;38.80;;;;;;5097649;28;20454;-75
2022/06/10 13:19:30;;;;;;;1.00;0.90;;;36.20;38.70;;;;;;5097287;28;20467;-74
2022/06/10 13:22:23;;;;;;;1.00;0.90;;;35.80;39.40;;;;;;5083393;28;20178;-75
2022/06/10 13:24:54;;;;;;;0.90;0.80;;;35.70;39.30;;;;;;5077540;28;20416;-75
2022/06/10 13:27:29;;;;;;;1.00;0.80;;;36.00;40.00;;;;;;5080465;28;21032;-74
2022/06/10 13:30:11;;;;;;;1.27;0.90;;;36.10;39.70;;;;;;5078252;28;20432;-72
2022/06/10 13:32:44;;;;;;;1.30;1.00;;;36.00;39.40;;;;;;5078344;28;20424;-75
2022/06/10 13:35:23;;;;;;;1.00;0.80;;;35.80;39.70;;;;;;5082240;28;20408;-74
2022/06/10 13:38:09;;;;;;;1.17;0.87;;;35.40;39.60;;;;;;5081923;28;20405;-74